CheckWX is a tool to help pilots better visualize weather data.  It is not intended as a substitute for an official pre-flight weather briefing.

14:56:55 UTC

KSTC METAR
St Cloud Regional Airport
St Cloud, Minnesota, USA
Current

1 hour ago

KSTC 171353Z 17005KT 10SM CLR 19/16 A2984 RMK AO2 SLP108 T01940161
Observed
Aug-17 @ 13:53 UTC
Wind
  • 170° at 5 KTS
Visibility
10 SM
Flight Rules
VFR
Cloud Levels
  • Clear skies
Temperature
19°C / 66°F
Dewpoint
16°C / 61°F
Humidity
83%
Altimeter
29.84" Hg
Pressure
1010.52 hPa
Previous

2 hours ago

KSTC 171253Z 17005KT 10SM CLR 18/16 A2984 RMK AO2 SLP107 T01780156
Observed
Aug-17 @ 12:53 UTC
Wind
  • 170° at 5 KTS
Visibility
10 SM
Flight Rules
VFR
Cloud Levels
  • Clear skies
Temperature
18°C / 64°F
Dewpoint
16°C / 61°F
Humidity
88%
Altimeter
29.84" Hg
Pressure
1010.52 hPa
Previous

3 hours ago

KSTC 171153Z 17005KT 10SM SCT048 SCT060 16/14 A2985 RMK AO2 SLP113 T01560144 10167 20139 53018
Observed
Aug-17 @ 11:53 UTC
Wind
  • 170° at 5 KTS
Visibility
10 SM
Flight Rules
VFR
Cloud Levels
  • Scattered at 4,800' AGL
  • Scattered at 6,000' AGL
Temperature
16°C / 61°F
Dewpoint
14°C / 57°F
Humidity
88%
Altimeter
29.85" Hg
Pressure
1010.82 hPa